createdAt,value
2022-10-02T00:00:55.547Z,9.67
2022-10-02T00:03:27.109Z,9.66
2022-10-02T00:06:03.785Z,9.66
2022-10-02T00:08:36.581Z,9.65
2022-10-02T00:11:10.682Z,9.67
2022-10-02T00:13:42.382Z,9.67
2022-10-02T00:16:20.518Z,9.66
2022-10-02T00:18:49.330Z,9.67
2022-10-02T00:21:33.190Z,9.67
2022-10-02T00:24:04.351Z,9.66
2022-10-02T00:26:39.899Z,9.66
2022-10-02T00:29:25.374Z,9.65
2022-10-02T00:32:11.175Z,9.63
2022-10-02T00:34:50.540Z,9.62
2022-10-02T00:37:26.544Z,9.60
2022-10-02T00:40:10.902Z,9.57
2022-10-02T00:42:57.827Z,9.55
2022-10-02T00:45:46.062Z,9.54
2022-10-02T00:48:31.667Z,9.50
2022-10-02T00:51:09.449Z,9.50
2022-10-02T00:53:47.730Z,9.47
2022-10-02T00:56:29.092Z,9.47
2022-10-02T00:59:08.238Z,9.44
2022-10-02T01:01:42.585Z,9.43
2022-10-02T01:04:14.238Z,9.44
2022-10-02T01:06:42.558Z,9.41
2022-10-02T01:09:11.029Z,9.41
2022-10-02T01:11:40.792Z,9.41
2022-10-02T01:14:08.984Z,9.42
2022-10-02T01:16:37.025Z,9.43
2022-10-02T01:19:05.093Z,9.43
2022-10-02T01:21:43.165Z,9.43
2022-10-02T01:24:18.435Z,9.42
2022-10-02T01:26:47.602Z,9.41
2022-10-02T01:29:15.498Z,9.40
2022-10-02T01:31:43.729Z,9.38
2022-10-02T01:34:11.854Z,9.36
2022-10-02T01:36:39.760Z,9.35
2022-10-02T01:39:08.251Z,9.35
2022-10-02T01:41:42.961Z,9.34
2022-10-02T01:44:13.893Z,9.33
2022-10-02T01:46:51.885Z,9.32
2022-10-02T01:49:36.800Z,9.34
2022-10-02T01:52:21.244Z,9.35
2022-10-02T01:55:01.471Z,9.36
2022-10-02T01:57:45.326Z,9.38
2022-10-02T02:00:18.387Z,9.35
2022-10-02T02:02:58.599Z,9.32
2022-10-02T02:05:35.745Z,9.30
2022-10-02T02:08:10.033Z,9.27
2022-10-02T02:10:53.642Z,9.25
2022-10-02T02:13:26.956Z,9.24
2022-10-02T02:16:03.160Z,9.23
2022-10-02T02:18:36.706Z,9.23
2022-10-02T02:21:10.059Z,9.26
2022-10-02T02:23:40.183Z,9.27
2022-10-02T02:26:12.441Z,9.29
2022-10-02T02:28:44.326Z,9.30
2022-10-02T02:31:18.987Z,9.31
2022-10-02T02:33:50.730Z,9.34
2022-10-02T02:36:21.835Z,9.38
2022-10-02T02:38:53.968Z,9.42
2022-10-02T02:41:26.834Z,9.47
2022-10-02T02:44:00.534Z,9.47
2022-10-02T02:47:00.033Z,9.50
2022-10-02T02:49:31.176Z,9.52
2022-10-02T02:52:02.720Z,9.54
2022-10-02T02:54:34.633Z,9.57
2022-10-02T02:57:05.962Z,9.60
2022-10-02T02:59:34.941Z,9.61
2022-10-02T03:02:04.138Z,9.62
2022-10-02T03:04:32.108Z,9.62
2022-10-02T03:07:03.498Z,9.61
2022-10-02T03:09:33.563Z,9.60
2022-10-02T03:12:13.765Z,9.59
2022-10-02T03:15:02.383Z,9.57
2022-10-02T03:17:43.916Z,9.52
2022-10-02T03:20:17.735Z,9.49
2022-10-02T03:22:55.603Z,9.46
2022-10-02T03:25:29.819Z,9.41
2022-10-02T03:28:04.258Z,9.39
2022-10-02T03:30:32.977Z,9.35
2022-10-02T03:33:03.984Z,9.31
2022-10-02T03:35:33.499Z,9.27
2022-10-02T03:38:06.082Z,9.23
2022-10-02T03:40:34.084Z,9.17
2022-10-02T03:43:02.416Z,9.14
2022-10-02T03:45:50.554Z,9.09
2022-10-02T03:48:41.655Z,9.06
2022-10-02T03:51:09.414Z,9.01
2022-10-02T03:53:37.269Z,8.98
2022-10-02T03:56:09.068Z,8.91
2022-10-02T03:58:40.362Z,8.88
2022-10-02T04:01:14.349Z,8.81
2022-10-02T04:03:49.625Z,8.78
2022-10-02T04:06:21.872Z,8.72
2022-10-02T04:08:55.445Z,8.69
2022-10-02T04:11:32.429Z,8.65
2022-10-02T04:14:08.535Z,8.61
2022-10-02T04:16:44.547Z,8.55
2022-10-02T04:19:26.072Z,8.51
2022-10-02T04:22:00.336Z,8.48
2022-10-02T04:24:33.090Z,8.45
2022-10-02T04:27:06.003Z,8.41
2022-10-02T04:29:39.849Z,8.39
2022-10-02T04:32:14.375Z,8.38
2022-10-02T04:34:43.717Z,8.38
2022-10-02T04:37:32.902Z,8.35
2022-10-02T04:40:30.998Z,8.32
2022-10-02T04:43:15.281Z,8.30
2022-10-02T04:45:58.937Z,8.29
2022-10-02T04:48:57.178Z,8.27
2022-10-02T04:51:40.432Z,8.26
2022-10-02T04:54:31.650Z,8.26
2022-10-02T04:57:15.203Z,8.24
2022-10-02T05:00:02.905Z,8.23
2022-10-02T05:02:45.437Z,8.21
2022-10-02T05:05:24.632Z,8.20
2022-10-02T05:08:25.416Z,8.20
2022-10-02T05:11:08.630Z,8.18
2022-10-02T05:13:57.908Z,8.18
2022-10-02T05:16:50.323Z,8.15
2022-10-02T05:19:41.203Z,8.16
2022-10-02T05:22:27.259Z,8.15
2022-10-02T05:25:13.251Z,8.14
2022-10-02T05:28:06.953Z,8.13
2022-10-02T05:30:46.265Z,8.15
2022-10-02T05:33:36.898Z,8.18
2022-10-02T05:36:29.232Z,8.20
2022-10-02T05:39:08.223Z,8.24
2022-10-02T05:41:49.927Z,8.27
2022-10-02T05:44:23.015Z,8.28
2022-10-02T05:46:56.829Z,8.31
2022-10-02T05:49:30.555Z,8.35
2022-10-02T05:52:02.567Z,8.36
2022-10-02T05:54:38.372Z,8.40
2022-10-02T05:57:15.655Z,8.43
2022-10-02T05:59:53.618Z,8.47
2022-10-02T06:02:29.461Z,8.52
2022-10-02T06:05:06.422Z,8.59
2022-10-02T06:07:34.728Z,8.64
2022-10-02T06:10:07.376Z,8.71
2022-10-02T06:12:41.966Z,8.73
2022-10-02T06:15:22.661Z,8.77
2022-10-02T06:17:56.762Z,8.80
2022-10-02T06:20:30.634Z,8.84
2022-10-02T06:23:04.784Z,8.85
2022-10-02T06:25:37.899Z,8.88
2022-10-02T06:28:15.029Z,8.93
2022-10-02T06:30:47.808Z,8.99
2022-10-02T06:33:20.998Z,9.07
2022-10-02T06:36:13.981Z,9.18
2022-10-02T06:39:02.065Z,9.28
2022-10-02T06:41:39.371Z,9.38
2022-10-02T06:44:17.833Z,9.48
2022-10-02T06:46:54.430Z,9.55
2022-10-02T06:49:38.080Z,9.64
2022-10-02T06:52:19.971Z,9.72
2022-10-02T06:55:01.703Z,9.78
2022-10-02T06:57:49.163Z,9.83
2022-10-02T07:00:21.255Z,9.90
2022-10-02T07:03:23.014Z,9.94
2022-10-02T07:06:14.974Z,9.98
2022-10-02T07:09:01.532Z,10.04
2022-10-02T07:11:40.887Z,10.08
2022-10-02T07:14:28.016Z,10.13
2022-10-02T07:17:21.613Z,10.17
2022-10-02T07:20:11.647Z,10.20
2022-10-02T07:22:55.061Z,10.25
2022-10-02T07:25:47.204Z,10.30
2022-10-02T07:28:21.234Z,10.34
2022-10-02T07:31:05.121Z,10.38
2022-10-02T07:33:51.816Z,10.48
2022-10-02T07:36:29.819Z,10.57
2022-10-02T07:39:16.023Z,10.65
2022-10-02T07:42:01.418Z,10.74
2022-10-02T07:44:41.794Z,10.85
2022-10-02T07:47:24.914Z,10.96
2022-10-02T07:49:57.956Z,11.06
2022-10-02T07:52:36.813Z,11.15
2022-10-02T07:55:19.842Z,11.23
2022-10-02T07:57:57.463Z,11.32
2022-10-02T08:00:27.535Z,11.38
2022-10-02T08:03:00.300Z,11.48
2022-10-02T08:05:32.112Z,11.52
2022-10-02T08:08:04.430Z,11.54
2022-10-02T08:10:38.191Z,11.64
2022-10-02T08:13:14.722Z,11.74
2022-10-02T08:15:45.498Z,11.86
2022-10-02T08:18:34.036Z,11.99
2022-10-02T08:21:06.453Z,12.11
2022-10-02T08:23:40.605Z,12.26
2022-10-02T08:26:13.556Z,12.38
2022-10-02T08:28:46.977Z,12.51
2022-10-02T08:31:16.279Z,12.66
2022-10-02T08:33:44.165Z,12.79
2022-10-02T08:36:40.038Z,12.94
2022-10-02T08:39:27.567Z,13.05
2022-10-02T08:42:24.914Z,13.21
2022-10-02T08:45:26.601Z,13.34
2022-10-02T08:48:30.957Z,13.52
2022-10-02T08:51:36.587Z,13.68
2022-10-02T08:54:38.725Z,13.79
2022-10-02T08:57:37.796Z,13.94
2022-10-02T09:00:15.426Z,14.02
2022-10-02T09:03:44.260Z,14.15
2022-10-02T09:06:42.001Z,14.12
2022-10-02T09:09:45.514Z,14.11
2022-10-02T09:12:37.840Z,14.08
2022-10-02T09:15:16.406Z,14.03
2022-10-02T09:17:47.377Z,14.02
2022-10-02T09:21:06.956Z,13.97
2022-10-02T09:24:28.315Z,14.03
2022-10-02T09:27:25.875Z,14.16
2022-10-02T09:30:20.856Z,14.38
2022-10-02T09:33:32.942Z,14.61
2022-10-02T09:36:47.515Z,14.86
2022-10-02T09:39:43.829Z,15.09
2022-10-02T09:42:49.719Z,15.06
2022-10-02T09:45:41.064Z,15.09
2022-10-02T09:48:49.147Z,15.25
2022-10-02T09:51:53.084Z,15.44
2022-10-02T09:54:56.395Z,15.57
2022-10-02T09:58:05.675Z,15.53
2022-10-02T10:01:14.317Z,15.45
2022-10-02T10:04:02.110Z,15.41
2022-10-02T10:06:53.903Z,15.43
2022-10-02T10:10:00.837Z,15.33
2022-10-02T10:12:58.628Z,15.24
2022-10-02T10:15:54.060Z,15.15
2022-10-02T10:19:02.598Z,15.23
2022-10-02T10:22:03.390Z,15.32
2022-10-02T10:25:05.259Z,15.49
2022-10-02T10:28:14.580Z,15.66
2022-10-02T10:31:16.195Z,15.66
2022-10-02T10:34:18.691Z,15.53
2022-10-02T10:37:13.029Z,15.55
2022-10-02T10:40:26.002Z,15.65
2022-10-02T10:43:28.062Z,15.91
2022-10-02T10:46:30.029Z,16.08
2022-10-02T10:49:23.288Z,16.11
2022-10-02T10:52:23.820Z,16.30
2022-10-02T10:55:36.778Z,16.41
2022-10-02T10:58:39.205Z,16.45
2022-10-02T11:01:24.401Z,16.44
2022-10-02T11:04:42.969Z,16.37
2022-10-02T11:07:44.130Z,16.27
2022-10-02T11:10:37.341Z,16.25
2022-10-02T11:13:45.461Z,16.18
2022-10-02T11:19:52.355Z,16.00
2022-10-02T11:22:56.272Z,16.00
2022-10-02T11:25:56.845Z,16.21
2022-10-02T11:29:00.892Z,16.20
2022-10-02T11:32:25.407Z,16.18
2022-10-02T11:35:29.016Z,16.41
2022-10-02T11:38:38.765Z,16.64
2022-10-02T11:41:37.951Z,16.80
2022-10-02T11:44:24.891Z,17.04
2022-10-02T11:47:28.782Z,17.22
2022-10-02T11:50:38.819Z,17.47
2022-10-02T11:53:32.315Z,17.62
2022-10-02T11:56:14.743Z,17.76
2022-10-02T11:58:51.247Z,17.90
2022-10-02T12:01:26.407Z,18.07
2022-10-02T12:04:07.571Z,18.19
2022-10-02T12:07:05.001Z,18.40
2022-10-02T12:09:44.733Z,18.57
2022-10-02T12:12:27.963Z,18.73
2022-10-02T12:15:06.487Z,18.88
2022-10-02T12:18:07.733Z,19.04
2022-10-02T12:21:07.880Z,19.24
2022-10-02T12:24:07.455Z,19.49
2022-10-02T12:27:04.670Z,19.72
2022-10-02T12:29:47.090Z,19.92
2022-10-02T12:32:28.566Z,20.04
2022-10-02T12:35:15.588Z,20.09
2022-10-02T12:37:51.747Z,20.22
2022-10-02T12:40:31.846Z,20.37
2022-10-02T12:43:35.550Z,20.57
2022-10-02T12:46:19.010Z,20.68
2022-10-02T12:49:04.085Z,20.71
2022-10-02T12:51:39.996Z,20.74
2022-10-02T12:54:53.992Z,20.92
2022-10-02T12:57:57.443Z,21.08
2022-10-02T13:00:29.760Z,21.12
2022-10-02T13:03:31.457Z,21.16
2022-10-02T13:06:29.691Z,21.00
2022-10-02T13:09:11.625Z,20.86
2022-10-02T13:11:55.703Z,20.73
2022-10-02T13:14:45.103Z,20.47
2022-10-02T13:17:28.760Z,20.22
2022-10-02T13:20:05.804Z,20.12
2022-10-02T13:22:43.475Z,20.03
2022-10-02T13:25:39.067Z,19.85
2022-10-02T13:28:21.073Z,19.66
2022-10-02T13:31:03.043Z,19.47
2022-10-02T13:33:51.621Z,19.34
2022-10-02T13:36:34.589Z,19.11
2022-10-02T13:39:21.505Z,18.91
2022-10-02T13:42:04.857Z,18.58
2022-10-02T13:44:39.344Z,18.13
2022-10-02T13:47:39.719Z,17.90
2022-10-02T13:50:18.515Z,17.65
2022-10-02T13:53:05.896Z,17.43
2022-10-02T13:55:39.245Z,17.20
2022-10-02T13:58:29.711Z,16.99
2022-10-02T14:01:05.143Z,16.81
2022-10-02T14:03:48.909Z,16.66
2022-10-02T14:06:25.060Z,16.52
2022-10-02T14:09:15.853Z,16.39
2022-10-02T14:11:58.681Z,16.28
2022-10-02T14:14:39.730Z,16.14
2022-10-02T14:17:20.171Z,16.02
2022-10-02T14:20:15.188Z,15.91
2022-10-02T14:22:59.782Z,15.76
2022-10-02T14:25:43.323Z,15.65
2022-10-02T14:28:31.768Z,15.62
2022-10-02T14:31:10.849Z,15.73
2022-10-02T14:34:06.947Z,16.00
2022-10-02T14:36:46.620Z,16.19
2022-10-02T14:39:29.040Z,16.33
2022-10-02T14:42:11.442Z,16.42
2022-10-02T14:44:56.992Z,16.55
2022-10-02T14:47:36.025Z,16.59
2022-10-02T14:50:23.436Z,16.66
2022-10-02T14:53:16.222Z,16.70
2022-10-02T14:56:09.924Z,16.65
2022-10-02T14:58:55.089Z,16.52
2022-10-02T15:01:24.243Z,16.38
2022-10-02T15:04:13.623Z,16.28
2022-10-02T15:07:14.056Z,16.21
2022-10-02T15:09:59.052Z,16.10
2022-10-02T15:12:34.635Z,15.99
2022-10-02T15:15:13.325Z,15.88
2022-10-02T15:17:57.374Z,15.81
2022-10-02T15:20:32.035Z,15.75
2022-10-02T15:23:02.012Z,15.69
2022-10-02T15:25:43.283Z,15.61
2022-10-02T15:28:37.340Z,15.57
2022-10-02T15:31:17.276Z,15.56
2022-10-02T15:33:53.445Z,15.51
2022-10-02T15:36:41.223Z,15.46
2022-10-02T15:39:26.886Z,15.40
2022-10-02T15:42:06.872Z,15.33
2022-10-02T15:44:56.148Z,15.26
2022-10-02T15:47:40.806Z,15.20
2022-10-02T15:50:23.588Z,15.12
2022-10-02T15:53:02.150Z,15.05
2022-10-02T15:55:38.779Z,14.98
2022-10-02T15:58:26.246Z,14.93
2022-10-02T16:01:21.445Z,14.88
2022-10-02T16:03:52.939Z,14.82
2022-10-02T16:06:35.136Z,14.77
2022-10-02T16:09:35.912Z,14.74
2022-10-02T16:12:28.043Z,14.65
2022-10-02T16:15:08.829Z,14.62
2022-10-02T16:17:46.593Z,14.59
2022-10-02T16:20:34.530Z,14.53
2022-10-02T16:23:34.887Z,14.51
2022-10-02T16:26:16.483Z,14.45
2022-10-02T16:29:03.828Z,14.41
2022-10-02T16:31:55.726Z,14.36
2022-10-02T16:34:39.711Z,14.30
2022-10-02T16:37:19.239Z,14.26
2022-10-02T16:40:04.293Z,14.22
2022-10-02T16:42:43.775Z,14.19
2022-10-02T16:45:30.770Z,14.17
2022-10-02T16:48:08.780Z,14.13
2022-10-02T16:51:04.688Z,14.11
2022-10-02T16:53:38.195Z,14.05
2022-10-02T16:56:12.387Z,14.01
2022-10-02T16:58:46.092Z,13.98
2022-10-02T17:01:25.550Z,13.95
2022-10-02T17:04:23.114Z,13.93
2022-10-02T17:06:59.982Z,13.89
2022-10-02T17:09:40.746Z,13.88
2022-10-02T17:12:20.348Z,13.84
2022-10-02T17:14:56.047Z,13.81
2022-10-02T17:17:30.239Z,13.76
2022-10-02T17:20:16.810Z,13.70
2022-10-02T17:22:56.374Z,13.63
2022-10-02T17:25:31.011Z,13.57
2022-10-02T17:28:06.087Z,13.53
2022-10-02T17:31:05.998Z,13.47
2022-10-02T17:33:45.005Z,13.39
2022-10-02T17:36:19.536Z,13.34
2022-10-02T17:39:29.733Z,13.28
2022-10-02T17:42:06.906Z,13.23
2022-10-02T17:44:46.243Z,13.19
2022-10-02T17:47:42.963Z,13.13
2022-10-02T17:50:33.531Z,13.09
2022-10-02T17:53:33.266Z,13.05
2022-10-02T17:56:31.514Z,12.99
2022-10-02T17:59:17.130Z,12.94
2022-10-02T18:01:54.841Z,12.87
2022-10-02T18:04:33.466Z,12.81
2022-10-02T18:07:17.765Z,12.76
2022-10-02T18:09:56.793Z,12.68
2022-10-02T18:12:45.502Z,12.62
2022-10-02T18:15:40.107Z,12.53
2022-10-02T18:18:24.086Z,12.46
2022-10-02T18:21:03.576Z,12.39
2022-10-02T18:23:50.448Z,12.32
2022-10-02T18:26:33.735Z,12.26
2022-10-02T18:29:15.020Z,12.20
2022-10-02T18:32:00.021Z,12.12
2022-10-02T18:34:55.968Z,12.04
2022-10-02T18:37:43.387Z,11.96
2022-10-02T18:40:23.200Z,11.89
2022-10-02T18:43:22.049Z,11.83
2022-10-02T18:46:04.359Z,11.75
2022-10-02T18:48:47.203Z,11.70
2022-10-02T18:51:30.148Z,11.65
2022-10-02T18:54:20.644Z,11.61
2022-10-02T18:57:00.187Z,11.57
2022-10-02T18:59:38.993Z,11.52
2022-10-02T19:02:26.271Z,11.47
2022-10-02T19:05:26.851Z,11.41
2022-10-02T19:08:07.186Z,11.37
2022-10-02T19:10:45.009Z,11.33
2022-10-02T19:13:21.675Z,11.31
2022-10-02T19:15:52.325Z,11.27
2022-10-02T19:18:23.542Z,11.22
2022-10-02T19:20:57.794Z,11.20
2022-10-02T19:23:32.846Z,11.18
2022-10-02T19:26:05.761Z,11.15
2022-10-02T19:28:46.956Z,11.12
2022-10-02T19:31:22.755Z,11.10
2022-10-02T19:33:56.975Z,11.08
2022-10-02T19:36:28.304Z,11.04
2022-10-02T19:39:01.383Z,11.02
2022-10-02T19:41:35.902Z,11.00
2022-10-02T19:44:11.819Z,10.99
2022-10-02T19:46:44.129Z,10.95
2022-10-02T19:49:20.302Z,10.94
2022-10-02T19:51:48.782Z,10.90
2022-10-02T19:54:20.887Z,10.90
2022-10-02T19:56:48.764Z,10.88
2022-10-02T19:59:20.021Z,10.87
2022-10-02T20:01:51.999Z,10.83
2022-10-02T20:04:22.710Z,10.82
2022-10-02T20:06:53.877Z,10.81
2022-10-02T20:09:28.143Z,10.80
2022-10-02T20:12:01.119Z,10.79
2022-10-02T20:14:33.658Z,10.76
2022-10-02T20:17:09.448Z,10.75
2022-10-02T20:19:45.167Z,10.73
2022-10-02T20:22:23.319Z,10.70
2022-10-02T20:24:57.839Z,10.71
2022-10-02T20:27:33.158Z,10.70
2022-10-02T20:30:06.153Z,10.72
2022-10-02T20:32:39.135Z,10.72
2022-10-02T20:35:15.340Z,10.73
2022-10-02T20:37:44.409Z,10.73
2022-10-02T20:40:18.881Z,10.74
2022-10-02T20:42:57.737Z,10.73
2022-10-02T20:45:35.382Z,10.74
2022-10-02T20:49:06.337Z,10.73
2022-10-02T20:51:50.508Z,10.73
2022-10-02T20:54:35.912Z,10.73
2022-10-02T20:58:02.191Z,10.73
2022-10-02T21:00:41.945Z,10.75
2022-10-02T21:03:30.791Z,10.76
2022-10-02T21:06:14.359Z,10.75
2022-10-02T21:09:17.525Z,10.75
2022-10-02T21:12:05.229Z,10.76
2022-10-02T21:15:04.006Z,10.73
2022-10-02T21:18:06.972Z,10.72
2022-10-02T21:21:01.873Z,10.73
2022-10-02T21:23:54.600Z,10.71
2022-10-02T21:26:45.993Z,10.71
2022-10-02T21:29:33.673Z,10.70
2022-10-02T21:32:30.110Z,10.70
2022-10-02T21:35:10.174Z,10.69
2022-10-02T21:37:53.575Z,10.70
2022-10-02T21:41:10.580Z,10.69
2022-10-02T21:44:17.884Z,10.69
2022-10-02T21:47:10.337Z,10.66
2022-10-02T21:50:18.031Z,10.66
2022-10-02T21:53:33.512Z,10.63
2022-10-02T21:56:52.647Z,10.63
2022-10-02T22:00:02.746Z,10.61
2022-10-02T22:02:56.816Z,10.57
2022-10-02T22:06:01.705Z,10.56
2022-10-02T22:08:36.443Z,10.53
2022-10-02T22:11:14.700Z,10.53
2022-10-02T22:13:44.255Z,10.51
2022-10-02T22:16:27.074Z,10.48
2022-10-02T22:19:00.079Z,10.47
2022-10-02T22:21:57.268Z,10.45
2022-10-02T22:24:49.808Z,10.45
2022-10-02T22:27:28.079Z,10.44
2022-10-02T22:29:57.246Z,10.42
2022-10-02T22:33:09.035Z,10.42
2022-10-02T22:35:58.679Z,10.40
2022-10-02T22:38:33.160Z,10.38
2022-10-02T22:41:07.259Z,10.39
2022-10-02T22:43:46.386Z,10.38
2022-10-02T22:46:25.766Z,10.38
2022-10-02T22:49:02.254Z,10.38
2022-10-02T22:51:39.058Z,10.36
2022-10-02T22:54:19.600Z,10.35
2022-10-02T22:56:55.493Z,10.35
2022-10-02T22:59:30.761Z,10.33
2022-10-02T23:02:07.762Z,10.32
2022-10-02T23:04:44.891Z,10.29
2022-10-02T23:07:17.887Z,10.30
2022-10-02T23:09:51.716Z,10.28
2022-10-02T23:12:27.681Z,10.28
2022-10-02T23:15:03.987Z,10.27
2022-10-02T23:17:38.426Z,10.27
2022-10-02T23:20:17.165Z,10.28
2022-10-02T23:22:54.329Z,10.26
2022-10-02T23:25:29.506Z,10.25
2022-10-02T23:28:01.247Z,10.23
2022-10-02T23:30:32.619Z,10.23
2022-10-02T23:33:03.867Z,10.21
2022-10-02T23:35:45.405Z,10.22
2022-10-02T23:38:19.420Z,10.21
2022-10-02T23:41:20.910Z,10.21
2022-10-02T23:44:00.787Z,10.19
2022-10-02T23:46:35.834Z,10.20
2022-10-02T23:49:04.594Z,10.20
2022-10-02T23:51:44.385Z,10.19
2022-10-02T23:54:36.301Z,10.18
2022-10-02T23:57:24.134Z,10.16
